Time;durP1;ratioP1;P1;durP2;ratioP2;P2;SDS_P1;SDS_P2;PMS_P1;PMS_P2;Temp;Humidity;BMP_temperature;BMP_pressure;BME280_temperature;BME280_humidity;BME280_pressure;Samples;Min_cycle;Max_cycle;Signal;HPM_P1;HPM_P2
2022/04/27 00:00:16;;;;;;;14.90;8.28;;;;;;;13.39;100.00;100626.92;1763115;81;21014;-64
2022/04/27 00:02:44;;;;;;;13.83;8.15;;;;;;;13.90;100.00;100635.78;1763673;81;21481;-64
2022/04/27 00:05:13;;;;;;;12.53;8.50;;;;;;;13.12;100.00;100635.20;1763570;81;21021;-64
2022/04/27 00:07:42;;;;;;;12.40;8.55;;;;;;;14.21;100.00;100641.34;1763347;81;21042;-64
2022/04/27 00:10:10;;;;;;;13.35;8.50;;;;;;;15.09;100.00;100651.33;1763650;81;21006;-64
2022/04/27 00:12:39;;;;;;;12.37;8.80;;;;;;;13.20;100.00;100652.91;1763237;81;21005;-64
2022/04/27 00:15:09;;;;;;;16.80;8.30;;;;;;;13.00;100.00;100653.48;1763607;81;21049;-64
2022/04/27 00:17:36;;;;;;;12.68;8.63;;;;;;;12.98;100.00;100654.48;1763667;81;21041;-65
2022/04/27 00:20:07;;;;;;;15.45;8.70;;;;;;;14.35;100.00;100656.09;1763558;80;21081;-64
2022/04/27 00:22:36;;;;;;;12.28;8.70;;;;;;;13.46;100.00;100658.45;1763554;81;21045;-65
2022/04/27 00:25:06;;;;;;;12.30;8.58;;;;;;;12.92;100.00;100649.63;1763252;81;21017;-65
2022/04/27 00:27:34;;;;;;;14.00;9.43;;;;;;;13.02;100.00;100657.28;1763646;81;20982;-65
2022/04/27 00:30:04;;;;;;;14.83;9.70;;;;;;;13.09;100.00;100661.66;1763496;81;20982;-64
2022/04/27 00:32:31;;;;;;;15.38;8.68;;;;;;;14.45;100.00;100663.70;1763772;81;21036;-64
2022/04/27 00:34:59;;;;;;;14.70;9.05;;;;;;;14.55;100.00;100671.78;1763339;81;21026;-64
2022/04/27 00:37:29;;;;;;;15.08;9.65;;;;;;;12.87;100.00;100667.09;1763651;81;21518;-65
2022/04/27 00:39:57;;;;;;;19.48;9.65;;;;;;;12.90;100.00;100665.20;1763623;81;21467;-64
2022/04/27 00:42:24;;;;;;;15.18;9.25;;;;;;;12.55;100.00;100666.97;1763416;81;21010;-65
2022/04/27 00:44:51;;;;;;;17.73;10.05;;;;;;;12.47;100.00;100666.08;1763585;81;21112;-65
2022/04/27 00:47:20;;;;;;;17.70;10.23;;;;;;;12.43;100.00;100667.14;1768983;81;21084;-65
2022/04/27 00:49:51;;;;;;;15.72;9.85;;;;;;;12.34;100.00;100671.45;1762229;81;21051;-65
2022/04/27 00:52:20;;;;;;;16.40;10.40;;;;;;;12.28;100.00;100675.16;1740189;80;21056;-66
2022/04/27 00:54:53;;;;;;;21.12;10.28;;;;;;;12.25;100.00;100669.30;1734649;81;21046;-65
2022/04/27 00:57:23;;;;;;;20.20;10.25;;;;;;;12.23;100.00;100671.52;1726424;83;21546;-65
2022/04/27 00:59:54;;;;;;;19.27;10.72;;;;;;;12.26;100.00;100673.11;1726319;82;21058;-65
2022/04/27 01:02:23;;;;;;;17.45;10.78;;;;;;;12.02;100.00;100675.97;1734139;81;21534;-65
2022/04/27 01:04:52;;;;;;;21.05;10.93;;;;;;;12.09;100.00;100675.68;1733961;82;21066;-64
2022/04/27 01:07:20;;;;;;;23.18;12.40;;;;;;;12.15;100.00;100665.06;1733786;83;20991;-64
2022/04/27 01:09:48;;;;;;;21.35;11.60;;;;;;;12.10;100.00;100664.44;1734342;83;21020;-64
2022/04/27 01:12:18;;;;;;;22.60;13.20;;;;;;;12.53;100.00;100664.91;1734098;83;21026;-65
2022/04/27 01:14:48;;;;;;;28.15;14.83;;;;;;;12.05;100.00;100667.24;1732543;83;21042;-65
2022/04/27 01:17:16;;;;;;;32.17;14.98;;;;;;;12.00;100.00;100670.48;1734592;81;21038;-65
2022/04/27 01:19:43;;;;;;;26.23;14.45;;;;;;;11.98;100.00;100672.30;1726083;83;21094;-64
2022/04/27 01:22:13;;;;;;;25.27;14.30;;;;;;;11.91;100.00;100677.38;1726070;83;21638;-64
2022/04/27 01:24:44;;;;;;;23.83;12.90;;;;;;;11.80;100.00;100670.95;1726084;83;21043;-65
2022/04/27 01:27:12;;;;;;;23.70;12.13;;;;;;;11.99;100.00;100671.41;1734088;82;21042;-65
2022/04/27 01:29:39;;;;;;;22.75;11.43;;;;;;;11.82;100.00;100674.30;1734650;81;21011;-65
2022/04/27 01:32:08;;;;;;;24.47;12.90;;;;;;;12.01;100.00;100680.73;1726096;83;21016;-65
2022/04/27 01:34:35;;;;;;;26.40;13.08;;;;;;;11.98;100.00;100699.39;1726346;83;21039;-65
2022/04/27 01:39:52;;;;;;;23.10;12.80;;;;;;;11.70;100.00;100694.20;1726433;83;21082;-66
2022/04/27 01:42:19;;;;;;;26.97;15.28;;;;;;;12.29;100.00;100694.09;1734176;81;20999;-66
2022/04/27 01:44:48;;;;;;;31.07;16.82;;;;;;;11.55;100.00;100691.02;1734549;83;21562;-63
2022/04/27 01:47:15;;;;;;;31.62;16.37;;;;;;;13.18;100.00;100691.75;1733809;83;21034;-66
2022/04/27 01:49:42;;;;;;;37.25;18.48;;;;;;;11.61;100.00;100694.15;1734629;83;21054;-66
2022/04/27 01:54:55;;;;;;;33.53;18.98;;;;;;;11.22;100.00;100693.73;1747987;82;21093;-64
2022/04/27 01:57:23;;;;;;;32.85;18.20;;;;;;;11.52;100.00;100696.33;1712340;84;21024;-64
2022/04/27 01:59:50;;;;;;;32.93;18.05;;;;;;;11.81;100.00;100691.95;1712519;83;21012;-65
2022/04/27 02:02:18;;;;;;;34.20;17.85;;;;;;;11.43;100.00;100688.54;1712195;84;21028;-64
2022/04/27 02:04:46;;;;;;;32.45;17.90;;;;;;;11.45;100.00;100688.48;1712553;82;21535;-64
2022/04/27 02:07:16;;;;;;;35.73;17.55;;;;;;;11.35;100.00;100701.76;1712314;84;21020;-64
2022/04/27 02:09:43;;;;;;;36.33;18.37;;;;;;;11.45;100.00;100703.94;1718307;82;21045;-65
2022/04/27 02:12:13;;;;;;;37.28;18.55;;;;;;;11.32;100.00;100699.33;1718053;83;21038;-65
2022/04/27 02:14:42;;;;;;;30.75;18.00;;;;;;;11.29;100.00;100694.76;1747872;82;21073;-64
2022/04/27 02:17:11;;;;;;;33.05;17.98;;;;;;;11.31;100.00;100697.64;1748108;82;21094;-64
2022/04/27 02:19:38;;;;;;;34.53;17.60;;;;;;;11.25;100.00;100700.49;1747825;82;21046;-64
2022/04/27 02:22:08;;;;;;;31.87;17.92;;;;;;;11.25;100.00;100704.81;1712251;84;21039;-65
2022/04/27 02:24:35;;;;;;;31.52;17.23;;;;;;;11.27;100.00;100715.44;1712530;84;21512;-65
2022/04/27 02:27:03;;;;;;;30.68;17.00;;;;;;;11.22;100.00;100710.95;1712221;84;21519;-65
2022/04/27 02:29:31;;;;;;;26.20;16.95;;;;;;;11.27;100.00;100715.89;1712670;84;21000;-65
2022/04/27 02:32:00;;;;;;;32.08;17.75;;;;;;;11.22;100.00;100721.26;1746880;82;21042;-65
2022/04/27 02:34:27;;;;;;;32.38;16.70;;;;;;;11.14;100.00;100724.16;1712312;84;21040;-65
2022/04/27 02:36:54;;;;;;;32.53;17.55;;;;;;;11.03;100.00;100718.64;1712115;84;21024;-65
2022/04/27 02:39:22;;;;;;;33.95;18.80;;;;;;;10.96;100.00;100721.91;1712459;84;21039;-65
2022/04/27 02:41:49;;;;;;;32.03;19.02;;;;;;;11.03;100.00;100723.80;1712210;84;21000;-66
2022/04/27 02:44:17;;;;;;;34.90;19.35;;;;;;;11.14;100.00;100727.19;1712281;84;21047;-65
2022/04/27 02:46:45;;;;;;;33.28;18.62;;;;;;;11.18;100.00;100725.70;1712240;84;21063;-65
2022/04/27 02:52:00;;;;;;;40.05;20.30;;;;;;;12.86;100.00;100739.08;1736007;81;21013;-64
2022/04/27 02:54:29;;;;;;;37.98;19.30;;;;;;;11.48;100.00;100754.09;1759071;81;21085;-64
2022/04/27 02:56:58;;;;;;;36.70;19.73;;;;;;;11.55;100.00;100735.68;1762751;81;21021;-64
2022/04/27 02:59:27;;;;;;;38.40;20.20;;;;;;;11.54;100.00;100744.80;1768828;80;21036;-64
2022/04/27 03:01:55;;;;;;;35.17;20.30;;;;;;;11.77;100.00;100745.87;1748576;81;21485;-65
2022/04/27 03:04:23;;;;;;;33.83;19.73;;;;;;;11.58;100.00;100742.47;1765628;81;21049;-64
2022/04/27 03:06:51;;;;;;;36.93;19.27;;;;;;;11.79;100.00;100740.66;1765736;81;21052;-65
2022/04/27 03:09:18;;;;;;;37.40;19.10;;;;;;;11.68;100.00;100740.28;1748197;81;21651;-64
2022/04/27 03:11:46;;;;;;;35.40;19.87;;;;;;;12.08;100.00;100748.36;1765638;80;21045;-65
2022/04/27 03:14:18;;;;;;;38.60;18.02;;;;;;;11.93;100.00;100753.78;1765223;81;21024;-65
2022/04/27 03:16:47;;;;;;;28.55;17.40;;;;;;;11.98;100.00;100753.56;1765618;81;21032;-65
2022/04/27 03:19:15;;;;;;;30.70;17.50;;;;;;;12.19;100.00;100752.58;1766020;81;21481;-65
2022/04/27 03:21:42;;;;;;;28.50;17.07;;;;;;;12.25;100.00;100762.22;1765713;81;21064;-64
2022/04/27 03:24:10;;;;;;;27.77;16.73;;;;;;;12.37;100.00;100750.88;1766141;81;21001;-65
2022/04/27 03:26:38;;;;;;;30.27;17.65;;;;;;;12.66;100.00;100755.55;1766127;81;21017;-64
2022/04/27 03:29:05;;;;;;;28.92;17.35;;;;;;;12.83;100.00;100757.70;1766184;81;21500;-65
2022/04/27 03:31:33;;;;;;;27.13;16.60;;;;;;;13.00;100.00;100761.19;1765772;81;21013;-65
2022/04/27 03:34:01;;;;;;;25.40;16.42;;;;;;;13.16;100.00;100770.30;1748436;81;21516;-64
2022/04/27 03:36:31;;;;;;;24.20;15.45;;;;;;;13.38;100.00;100772.63;1765873;81;21025;-64
2022/04/27 03:38:59;;;;;;;23.32;15.58;;;;;;;13.56;100.00;100779.89;1766049;81;21064;-64
2022/04/27 03:41:28;;;;;;;21.10;15.08;;;;;;;13.83;100.00;100777.62;1765773;81;21036;-64
2022/04/27 03:43:55;;;;;;;18.98;14.53;;;;;;;13.97;100.00;100784.19;1766154;81;21072;-65
2022/04/27 03:46:22;;;;;;;20.20;14.85;;;;;;;14.15;100.00;100783.65;1765785;81;21619;-64
2022/04/27 03:48:54;;;;;;;20.25;13.75;;;;;;;14.27;100.00;100794.23;1765008;81;21520;-64
2022/04/27 03:51:21;;;;;;;18.10;13.20;;;;;;;14.38;100.00;100797.91;1765144;81;21036;-65
2022/04/27 03:53:51;;;;;;;18.48;13.90;;;;;;;14.57;100.00;100793.03;1756671;82;21038;-65
2022/04/27 03:56:19;;;;;;;19.65;13.05;;;;;;;14.75;100.00;100805.41;1756786;82;21026;-65
2022/04/27 03:58:46;;;;;;;17.70;12.23;;;;;;;14.90;100.00;100810.16;1756478;81;21097;-64
2022/04/27 04:01:14;;;;;;;16.55;12.90;;;;;;;14.87;100.00;100811.66;1756732;82;21047;-64
2022/04/27 04:03:42;;;;;;;15.40;11.90;;;;;;;14.81;100.00;100808.95;1739642;82;21654;-64
2022/04/27 04:06:09;;;;;;;17.00;11.65;;;;;;;14.97;100.00;100815.39;1734117;83;21558;-65
2022/04/27 04:08:42;;;;;;;17.15;10.98;;;;;;;15.19;100.00;100822.29;1749626;81;21044;-64
2022/04/27 04:11:12;;;;;;;14.25;10.58;;;;;;;15.23;100.00;100821.66;1780247;81;21122;-64
2022/04/27 04:13:47;;;;;;;12.75;10.32;;;;;;;15.28;100.00;100830.45;1778162;81;21030;-64
2022/04/27 04:16:16;;;;;;;12.55;10.00;;;;;;;15.48;100.00;100831.88;1779309;81;21027;-64
2022/04/27 04:18:54;;;;;;;13.20;10.05;;;;;;;15.34;100.00;100842.59;1755706;81;21019;-64
2022/04/27 04:21:29;;;;;;;12.47;9.93;;;;;;;15.37;100.00;100845.49;1777650;79;21019;-64
2022/04/27 04:24:06;;;;;;;11.88;9.53;;;;;;;15.38;100.00;100849.27;1780137;80;21026;-65
2022/04/27 04:29:23;;;;;;;11.63;8.95;;;;;;;15.27;100.00;100849.52;1780351;79;21022;-64
2022/04/27 04:31:52;;;;;;;11.75;9.30;;;;;;;15.44;100.00;100850.67;1780410;80;21061;-64
2022/04/27 04:34:25;;;;;;;12.45;9.45;;;;;;;15.62;100.00;100844.39;1780322;80;21030;-65
2022/04/27 04:36:55;;;;;;;12.85;9.68;;;;;;;15.90;100.00;100849.73;1780304;81;21073;-64
2022/04/27 04:39:24;;;;;;;10.50;8.53;;;;;;;15.68;100.00;100852.28;1780488;79;21090;-64
2022/04/27 04:41:51;;;;;;;9.40;8.40;;;;;;;15.95;100.00;100862.77;1780115;79;21041;-65
2022/04/27 04:44:18;;;;;;;10.40;8.40;;;;;;;15.53;100.00;100870.05;1780169;81;21093;-64
2022/04/27 04:47:03;;;;;;;11.88;8.93;;;;;;;15.28;100.00;100877.97;1777744;81;21629;-65
2022/04/27 04:49:48;;;;;;;12.47;9.28;;;;;;;15.51;100.00;100878.38;1780102;81;21016;-65
2022/04/27 04:52:34;;;;;;;9.70;8.70;;;;;;;15.44;100.00;100872.73;1780008;79;21042;-64
2022/04/27 04:55:08;;;;;;;12.30;9.35;;;;;;;15.46;100.00;100876.06;1722528;81;21073;-64
2022/04/27 04:57:43;;;;;;;11.93;9.45;;;;;;;15.19;100.00;100883.70;1743259;81;21073;-64
2022/04/27 05:00:28;;;;;;;12.37;8.85;;;;;;;15.40;100.00;100886.33;1780300;81;21102;-64
2022/04/27 05:02:58;;;;;;;9.83;8.40;;;;;;;15.48;100.00;100884.59;1779933;81;21506;-64
2022/04/27 05:05:27;;;;;;;12.05;9.10;;;;;;;15.57;100.00;100900.08;1718034;81;21074;-64
2022/04/27 05:08:05;;;;;;;10.60;8.50;;;;;;;15.64;100.00;100896.20;1778807;81;21074;-63
2022/04/27 05:10:40;;;;;;;11.80;8.70;;;;;;;15.49;100.00;100907.47;1770134;81;21088;-64
2022/04/27 05:13:28;;;;;;;10.20;8.18;;;;;;;15.63;100.00;100903.61;1649567;86;21049;-64
2022/04/27 05:16:05;;;;;;;11.33;8.20;;;;;;;15.81;100.00;100918.59;1648666;87;21054;-64
2022/04/27 05:18:51;;;;;;;10.43;8.53;;;;;;;15.87;100.00;100913.50;1705135;82;21041;-64
2022/04/27 05:21:24;;;;;;;11.75;8.65;;;;;;;15.94;100.00;100916.11;1734390;80;21056;-64
2022/04/27 05:24:04;;;;;;;11.93;9.00;;;;;;;15.88;100.00;100926.40;1723994;82;21031;-64
2022/04/27 05:26:51;;;;;;;11.78;8.85;;;;;;;15.63;100.00;100927.82;1750692;81;21014;-64
2022/04/27 05:32:43;;;;;;;10.10;7.92;;;;;;;15.99;100.00;100929.64;1780179;80;21030;-64
2022/04/27 05:35:28;;;;;;;10.93;7.92;;;;;;;16.13;100.00;100933.53;1780514;79;21127;-65
2022/04/27 05:37:57;;;;;;;12.15;8.00;;;;;;;16.08;100.00;100929.09;1775081;79;21497;-65
2022/04/27 05:40:41;;;;;;;10.90;7.80;;;;;;;16.13;100.00;100932.23;1681605;84;21538;-65
2022/04/27 05:43:10;;;;;;;9.25;7.30;;;;;;;16.06;100.00;100927.06;1764486;81;21059;-65
2022/04/27 05:45:45;;;;;;;8.43;7.08;;;;;;;16.25;100.00;100935.03;1690396;81;21581;-65
2022/04/27 05:48:34;;;;;;;8.65;6.67;;;;;;;16.41;100.00;100933.98;1763305;81;21022;-64
2022/04/27 05:51:09;;;;;;;7.92;6.80;;;;;;;16.11;100.00;100935.86;1762745;81;21021;-64
2022/04/27 05:53:50;;;;;;;9.83;7.05;;;;;;;16.14;100.00;100939.56;1763019;80;21046;-64
2022/04/27 05:56:37;;;;;;;9.40;6.62;;;;;;;16.10;100.00;100942.83;1764586;79;21026;-64
2022/04/27 05:59:20;;;;;;;7.90;6.28;;;;;;;16.09;100.00;100946.80;1760975;80;21025;-64
2022/04/27 06:02:04;;;;;;;11.75;7.08;;;;;;;16.37;100.00;100944.67;1763313;81;21065;-64
2022/04/27 06:04:31;;;;;;;9.48;6.60;;;;;;;16.32;100.00;100951.89;1764418;81;21100;-65
2022/04/27 06:07:00;;;;;;;7.95;6.47;;;;;;;16.17;100.00;100948.48;1764573;80;21049;-64
2022/04/27 06:09:29;;;;;;;7.03;6.28;;;;;;;15.98;100.00;100952.66;1764003;81;21026;-66
2022/04/27 06:12:01;;;;;;;7.42;6.30;;;;;;;16.14;100.00;100959.03;1753306;81;21441;-64
2022/04/27 06:14:44;;;;;;;7.17;5.90;;;;;;;16.36;100.00;100948.18;1734221;82;21516;-65
2022/04/27 06:17:14;;;;;;;7.03;5.78;;;;;;;16.65;100.00;100948.17;1727026;83;21060;-65
2022/04/27 06:19:43;;;;;;;7.72;6.20;;;;;;;16.53;100.00;100955.78;1734282;82;21045;-65
2022/04/27 06:22:13;;;;;;;8.30;5.55;;;;;;;18.20;100.00;100956.24;1733959;83;21037;-64
2022/04/27 06:24:41;;;;;;;6.83;5.85;;;;;;;17.81;100.00;100965.34;1734716;82;21013;-64
2022/04/27 06:27:28;;;;;;;9.68;6.00;;;;;;;17.42;100.00;100963.15;1760157;81;21035;-65
2022/04/27 06:29:56;;;;;;;7.70;5.90;;;;;;;18.70;100.00;100957.56;1751812;81;21052;-65
2022/04/27 06:32:23;;;;;;;7.53;6.10;;;;;;;17.92;100.00;100970.31;1751446;81;21045;-64
2022/04/27 06:34:50;;;;;;;8.03;5.80;;;;;;;17.62;100.00;100979.23;1755548;81;21486;-64
2022/04/27 06:37:19;;;;;;;6.45;5.15;;;;;;;17.03;100.00;100993.86;1748940;81;20997;-65
2022/04/27 06:39:46;;;;;;;7.08;5.50;;;;;;;17.29;100.00;100984.38;1756632;79;21528;-65
2022/04/27 06:42:21;;;;;;;6.75;5.30;;;;;;;17.07;100.00;100991.45;1751732;81;21069;-65
2022/04/27 06:44:50;;;;;;;6.42;5.70;;;;;;;17.47;100.00;100991.94;1689107;79;21039;-64
2022/04/27 06:47:35;;;;;;;8.38;5.58;;;;;;;17.12;100.00;101001.56;1767903;80;21062;-64
2022/04/27 06:50:21;;;;;;;8.58;5.40;;;;;;;17.24;100.00;100993.45;1767927;79;21047;-64
2022/04/27 06:53:09;;;;;;;6.72;5.55;;;;;;;17.70;100.00;101000.39;1767732;81;21514;-64
2022/04/27 06:55:56;;;;;;;7.03;5.55;;;;;;;17.72;100.00;100996.36;1768640;81;21063;-63
2022/04/27 06:58:32;;;;;;;5.72;5.12;;;;;;;18.00;100.00;100984.52;1767868;81;21054;-64
2022/04/27 07:01:04;;;;;;;6.00;4.60;;;;;;;17.47;100.00;100985.44;1767283;81;21066;-64
2022/04/27 07:03:33;;;;;;;5.03;4.35;;;;;;;17.74;100.00;100990.58;1768068;80;21031;-64
2022/04/27 07:06:03;;;;;;;6.22;4.37;;;;;;;17.79;100.00;100995.85;1767849;81;21074;-64
2022/04/27 07:08:30;;;;;;;7.08;4.97;;;;;;;17.87;100.00;100991.95;1768919;81;21046;-65
2022/04/27 07:10:59;;;;;;;6.55;4.30;;;;;;;17.71;100.00;100995.53;1769369;79;21013;-66
2022/04/27 07:13:28;;;;;;;6.33;4.17;;;;;;;17.63;100.00;100990.00;1768406;79;21003;-66
2022/04/27 07:16:04;;;;;;;6.00;4.95;;;;;;;19.55;89.85;100983.13;1769639;81;21039;-66
2022/04/27 07:18:29;;;;;;;4.78;4.28;;;;;;;17.96;99.15;100997.83;1767630;80;21046;-66
2022/04/27 07:21:00;;;;;;;6.10;3.95;;;;;;;18.44;98.91;100991.51;1768666;81;21542;-65
2022/04/27 07:23:28;;;;;;;6.78;4.17;;;;;;;18.08;93.03;101000.08;1769648;79;21444;-66
2022/04/27 07:25:56;;;;;;;5.17;4.12;;;;;;;19.55;91.52;100998.80;1769715;79;21578;-65
2022/04/27 07:28:25;;;;;;;4.28;3.70;;;;;;;19.68;86.97;101001.32;1769607;80;21066;-66
2022/04/27 07:30:52;;;;;;;6.20;4.20;;;;;;;18.08;92.14;101006.11;1769891;81;21432;-66
2022/04/27 07:33:21;;;;;;;5.92;4.33;;;;;;;19.10;89.77;101002.98;1769593;79;21106;-66
2022/04/27 07:35:50;;;;;;;6.47;4.47;;;;;;;18.41;87.89;101002.16;1769043;81;21042;-66
2022/04/27 07:38:17;;;;;;;6.35;4.15;;;;;;;17.66;96.83;101003.27;1767841;81;21093;-66
2022/04/27 07:40:45;;;;;;;5.72;4.55;;;;;;;17.45;97.67;101012.86;1768060;81;21087;-66
2022/04/27 07:43:15;;;;;;;5.60;4.35;;;;;;;17.70;99.73;100999.09;1768043;81;21503;-65
2022/04/27 07:45:44;;;;;;;5.00;4.22;;;;;;;18.08;96.33;100992.27;1768341;80;21125;-66
2022/04/27 07:48:12;;;;;;;7.35;3.92;;;;;;;18.22;96.59;100987.77;1767899;81;21035;-64
2022/04/27 07:50:40;;;;;;;4.42;3.80;;;;;;;18.17;94.98;100991.65;1767834;81;21039;-64
2022/04/27 07:53:07;;;;;;;5.33;3.72;;;;;;;17.82;90.14;100987.85;1778810;80;21058;-65
2022/04/27 07:55:34;;;;;;;3.92;3.47;;;;;;;17.79;91.39;100990.64;1798025;80;21023;-65
2022/04/27 07:58:02;;;;;;;5.60;3.85;;;;;;;17.96;91.57;100993.48;1798334;79;21507;-65
2022/04/27 08:00:29;;;;;;;5.20;4.00;;;;;;;17.81;92.28;100987.95;1797873;80;21070;-65
2022/04/27 08:02:58;;;;;;;5.65;4.10;;;;;;;18.20;92.67;100990.13;1798382;80;21535;-65
2022/04/27 08:05:26;;;;;;;6.65;3.80;;;;;;;18.32;91.31;100993.66;1798648;79;21089;-65
2022/04/27 08:07:54;;;;;;;6.95;4.40;;;;;;;18.42;89.02;100990.30;1798872;79;21007;-65
2022/04/27 08:10:22;;;;;;;6.03;3.77;;;;;;;18.89;88.66;100993.63;1799171;80;21047;-64
2022/04/27 08:12:50;;;;;;;5.12;4.10;;;;;;;18.78;86.21;100995.19;1798910;80;21047;-64
2022/04/27 08:15:21;;;;;;;4.28;3.77;;;;;;;18.84;86.08;100996.56;1798883;78;21043;-64
2022/04/27 08:18:01;;;;;;;5.50;3.80;;;;;;;18.84;83.90;100987.44;1799803;80;21482;-64
2022/04/27 08:23:32;;;;;;;4.83;4.17;;;;;;;19.98;78.52;100995.59;1800312;78;20995;-63
2022/04/27 08:26:04;;;;;;;12.40;4.80;;;;;;;19.03;81.45;100999.98;1799640;80;21550;-64
2022/04/27 08:28:32;;;;;;;4.90;4.12;;;;;;;18.63;84.43;101007.99;1799531;78;21510;-63
2022/04/27 08:31:01;;;;;;;4.03;3.15;;;;;;;18.94;82.54;101005.41;1800085;78;21018;-63
2022/04/27 08:33:29;;;;;;;5.40;3.60;;;;;;;19.16;77.25;101007.31;1799676;80;21003;-64
2022/04/27 08:36:01;;;;;;;3.40;3.10;;;;;;;19.48;75.86;101004.58;1799416;80;20960;-64
2022/04/27 08:38:30;;;;;;;9.03;4.05;;;;;;;20.26;77.32;101003.13;1799447;79;21491;-64
2022/04/27 08:40:57;;;;;;;8.30;3.77;;;;;;;20.25;73.76;101006.68;1799841;80;21435;-65
2022/04/27 08:43:26;;;;;;;4.15;3.37;;;;;;;20.18;75.63;100998.00;1799796;80;21058;-64
2022/04/27 08:45:55;;;;;;;4.10;3.42;;;;;;;20.23;74.42;101013.32;1799338;79;21341;-64
2022/04/27 08:48:22;;;;;;;5.33;3.65;;;;;;;20.11;74.07;101015.09;1795723;80;21549;-63
2022/04/27 08:50:52;;;;;;;5.65;3.92;;;;;;;19.84;74.80;101018.02;1799556;79;21018;-64
2022/04/27 08:53:19;;;;;;;5.55;3.75;;;;;;;19.58;76.08;101017.31;1799283;78;21047;-64
2022/04/27 08:55:46;;;;;;;4.80;3.47;;;;;;;19.57;76.26;101011.27;1799581;80;21093;-65
2022/04/27 08:58:16;;;;;;;4.00;3.65;;;;;;;19.44;75.17;101010.98;1799628;79;21583;-65
2022/04/27 09:00:45;;;;;;;9.18;4.35;;;;;;;19.82;74.78;101004.24;1796536;80;21035;-64
2022/04/27 09:03:32;;;;;;;5.60;3.10;;;;;;;19.68;75.46;101016.17;1799408;79;21561;-65
2022/04/27 09:06:12;;;;;;;5.72;3.87;;;;;;;19.53;74.16;101014.23;1799557;79;21451;-64
2022/04/27 09:08:49;;;;;;;4.00;3.58;;;;;;;19.28;75.44;101010.81;1799891;80;20982;-64
2022/04/27 09:11:28;;;;;;;4.78;3.92;;;;;;;19.40;77.43;101001.22;1799756;79;20991;-65
2022/04/27 09:14:11;;;;;;;5.78;4.85;;;;;;;19.41;77.64;101006.34;1799659;80;21006;-65
2022/04/27 09:22:38;;;;;;;4.80;3.62;;;;;;;19.86;74.23;101000.94;1799886;78;20996;-64
2022/04/27 09:25:06;;;;;;;3.95;3.65;;;;;;;19.48;76.08;101017.16;1798956;80;20995;-64
2022/04/27 09:27:35;;;;;;;4.78;3.42;;;;;;;19.20;79.05;101001.37;1799644;80;20983;-64
2022/04/27 09:30:07;;;;;;;5.53;3.37;;;;;;;19.31;78.31;101005.83;1795937;80;21549;-64
2022/04/27 09:32:36;;;;;;;3.98;3.67;;;;;;;19.40;75.65;101010.36;1799768;79;21525;-65
2022/04/27 09:35:08;;;;;;;5.10;3.98;;;;;;;19.41;77.87;101011.56;1799476;80;21003;-65
2022/04/27 09:37:42;;;;;;;4.35;3.95;;;;;;;19.44;78.62;101001.84;1799496;78;21668;-65
2022/04/27 09:40:13;;;;;;;5.58;4.30;;;;;;;19.55;75.70;101018.38;1797596;80;21010;-64
2022/04/27 09:42:45;;;;;;;5.87;3.72;;;;;;;19.59;76.48;101004.63;1795801;80;20970;-64
2022/04/27 09:45:21;;;;;;;4.75;3.70;;;;;;;19.60;74.63;101014.12;1799667;79;20998;-65
2022/04/27 09:48:11;;;;;;;;;;;;;;;;;;;;;
2022/04/27 09:50:58;;;;;;;5.60;3.35;;;;;;;20.16;71.94;101013.45;1764991;81;21046;-64
2022/04/27 09:53:26;;;;;;;4.72;3.47;;;;;;;20.14;74.47;101011.43;1760631;80;21066;-64
2022/04/27 09:55:56;;;;;;;3.65;3.20;;;;;;;20.06;72.85;101018.55;1734258;82;21570;-64
2022/04/27 09:58:26;;;;;;;4.92;3.00;;;;;;;20.15;72.25;101017.00;1735038;83;21479;-64
2022/04/27 10:00:58;;;;;;;7.03;3.25;;;;;;;20.13;70.54;101026.29;1734578;83;21557;-65
2022/04/27 10:03:26;;;;;;;3.35;3.05;;;;;;;19.96;69.98;101022.32;1734007;83;21047;-64
2022/04/27 10:05:55;;;;;;;5.17;3.15;;;;;;;19.87;70.52;101030.02;1734658;83;21094;-64
2022/04/27 10:08:24;;;;;;;4.95;3.35;;;;;;;19.89;68.83;101016.36;1734365;81;21609;-64
2022/04/27 10:10:52;;;;;;;3.80;3.40;;;;;;;19.93;70.20;101013.88;1734648;83;21022;-64
2022/04/27 10:13:20;;;;;;;4.50;3.17;;;;;;;20.21;68.91;101008.23;1734457;83;21015;-64
2022/04/27 10:15:49;;;;;;;5.78;3.15;;;;;;;20.69;68.71;101002.42;1734554;83;21066;-65
2022/04/27 10:18:19;;;;;;;5.50;2.58;;;;;;;21.15;66.78;101019.20;1734436;81;21083;-65
2022/04/27 10:20:51;;;;;;;2.98;2.75;;;;;;;21.32;62.69;101013.08;1734390;81;21073;-64
2022/04/27 10:23:31;;;;;;;3.72;2.80;;;;;;;21.48;62.16;101012.69;1734290;81;21579;-64
2022/04/27 10:26:11;;;;;;;3.15;2.77;;;;;;;20.89;64.96;101017.37;1744875;81;21050;-63
2022/04/27 10:28:51;;;;;;;6.10;3.02;;;;;;;20.80;64.25;101020.70;1729008;81;21499;-63
2022/04/27 10:31:48;;;;;;;5.80;3.22;;;;;;;20.80;64.97;101024.63;1762608;81;21028;-64
2022/04/27 10:34:25;;;;;;;3.30;2.90;;;;;;;20.95;64.77;101024.73;1762701;81;21593;-64
2022/04/27 10:36:57;;;;;;;3.25;2.87;;;;;;;20.77;64.54;101031.42;1762929;81;21547;-65
2022/04/27 10:39:35;;;;;;;3.33;2.77;;;;;;;20.66;63.81;101027.50;1763007;81;21086;-64
2022/04/27 10:42:09;;;;;;;2.45;2.25;;;;;;;21.00;63.58;101033.52;1762831;81;21016;-64
2022/04/27 10:44:54;;;;;;;5.67;2.60;;;;;;;20.85;61.01;101036.05;1762812;81;21035;-64
2022/04/27 10:47:23;;;;;;;3.67;2.70;;;;;;;20.81;61.02;101027.13;1762954;81;21059;-64
2022/04/27 10:50:25;;;;;;;4.95;2.70;;;;;;;20.60;62.25;101040.60;1762558;81;21555;-64
2022/04/27 10:52:56;;;;;;;3.30;2.90;;;;;;;20.98;61.49;101030.19;1762928;81;21062;-65
2022/04/27 10:55:43;;;;;;;4.28;2.92;;;;;;;21.34;60.94;101030.80;1762874;81;21023;-64
2022/04/27 10:58:31;;;;;;;5.92;2.60;;;;;;;21.40;61.71;101029.82;1762975;81;21019;-64
2022/04/27 11:01:11;;;;;;;3.77;2.60;;;;;;;21.21;62.21;101025.73;1762705;81;21047;-64
2022/04/27 11:03:40;;;;;;;5.90;2.22;;;;;;;21.54;61.12;101023.48;1762874;80;21067;-64
2022/04/27 11:06:13;;;;;;;4.05;2.33;;;;;;;21.96;59.30;101022.19;1762648;81;21059;-64
2022/04/27 11:09:21;;;;;;;2.50;2.30;;;;;;;21.84;57.19;101029.77;1762809;81;21563;-64
2022/04/27 11:11:56;;;;;;;4.58;2.10;;;;;;;21.51;56.36;101023.75;1758291;81;21558;-63
2022/04/27 11:14:36;;;;;;;2.33;2.10;;;;;;;22.00;55.09;101026.70;1763042;81;21006;-64
2022/04/27 11:17:06;;;;;;;2.52;2.20;;;;;;;21.54;55.31;101022.17;1762849;81;21058;-64
2022/04/27 11:19:39;;;;;;;2.98;2.67;;;;;;;20.94;58.63;101026.15;1762926;81;21566;-64
2022/04/27 11:22:15;;;;;;;6.42;2.72;;;;;;;20.62;60.65;101026.93;1762903;81;22159;-64
2022/04/27 11:24:46;;;;;;;3.10;2.30;;;;;;;20.63;60.75;101037.73;1763145;81;21043;-64
2022/04/27 11:27:29;;;;;;;4.20;2.50;;;;;;;20.76;60.31;101030.59;1762831;81;21034;-64
2022/04/27 11:29:58;;;;;;;3.20;2.50;;;;;;;20.58;59.16;101035.48;1762818;81;20988;-63
2022/04/27 11:32:32;;;;;;;4.87;2.40;;;;;;;20.71;59.84;101034.52;1758588;81;21027;-64
2022/04/27 11:34:56;;;;;;;3.12;2.47;;;;;;;20.49;60.57;101035.33;1761691;81;21023;-64
2022/04/27 11:37:25;;;;;;;4.35;2.40;;;;;;;20.68;60.17;101033.44;1762749;81;21027;-64
2022/04/27 11:39:54;;;;;;;3.37;2.30;;;;;;;20.76;59.96;101034.98;1762759;81;21075;-65
2022/04/27 11:42:21;;;;;;;3.15;2.40;;;;;;;21.05;57.98;101031.86;1767455;81;21015;-64
2022/04/27 11:44:53;;;;;;;5.17;2.20;;;;;;;20.77;57.17;101034.04;1768018;80;21035;-64
2022/04/27 11:47:32;;;;;;;2.25;2.05;;;;;;;21.00;56.30;101030.89;1768193;81;21309;-64
2022/04/27 11:50:02;;;;;;;5.00;2.40;;;;;;;21.04;54.79;101031.00;1768165;81;21046;-64
2022/04/27 11:52:42;;;;;;;2.67;2.20;;;;;;;21.37;54.25;101027.92;1768183;81;20980;-64
2022/04/27 11:55:12;;;;;;;2.10;1.90;;;;;;;21.32;54.31;101023.55;1765120;81;21022;-64
2022/04/27 11:57:43;;;;;;;1.98;1.82;;;;;;;21.24;54.64;101021.55;1768110;81;21023;-64